KADM/ADM METAR and TAF weather

Enter ICAO airport designator
Station Type Date Time Source
KADM METAR 2022/12/08 12:50 UTC NOAA

KADM 081250Z 00000KT 10SM -RA SCT005 OVC009 12/12 A3013


Station Type Date Time Source
KADM Decoded METAR 2022/12/08 12:50 UTC NOAA

Ardmore, Ardmore Municipal Airport, OK, United States (KADM) 34-18-11N 097-01-10W
Dec 08, 2022 - 07:50 AM EST / 2022.12.08 1250 UTC
Wind: Calm:0
Visibility: 10 mile(s):0
Sky conditions: overcast
Weather: light rain
Temperature: 53 F (12 C)
Dew Point: 53 F (12 C)
Relative Humidity: 100%
Pressure (altimeter): 30.13 in. Hg (1020 hPa)
ob: KADM 081250Z 00000KT 10SM -RA SCT005 OVC009 12/12 A3013
cycle: 13

Station Type Date Time Source
KADM TAF UTC NOAA

Error!

Example: see airport list